sensor_id;sensor_type;location;lat;lon;timestamp;P1;durP1;ratioP1;P2;durP2;ratioP2
6121;SDS011;3091;51.506;7.672;2023-08-07T00:01:54;28.03;;;26.13;;
6121;SDS011;3091;51.506;7.672;2023-08-07T00:04:20;27.97;;;25.97;;
6121;SDS011;3091;51.506;7.672;2023-08-07T00:06:46;26.83;;;25.03;;
6121;SDS011;3091;51.506;7.672;2023-08-07T00:09:11;27.70;;;25.90;;
6121;SDS011;3091;51.506;7.672;2023-08-07T00:11:38;28.60;;;26.70;;
6121;SDS011;3091;51.506;7.672;2023-08-07T00:14:04;28.57;;;26.47;;
6121;SDS011;3091;51.506;7.672;2023-08-07T00:16:29;28.90;;;26.90;;
6121;SDS011;3091;51.506;7.672;2023-08-07T00:18:55;29.33;;;27.53;;
6121;SDS011;3091;51.506;7.672;2023-08-07T00:21:22;29.10;;;27.23;;
6121;SDS011;3091;51.506;7.672;2023-08-07T00:23:49;29.27;;;27.37;;
6121;SDS011;3091;51.506;7.672;2023-08-07T00:26:15;29.73;;;27.67;;
6121;SDS011;3091;51.506;7.672;2023-08-07T00:28:41;28.60;;;26.80;;
6121;SDS011;3091;51.506;7.672;2023-08-07T00:31:07;29.13;;;27.23;;
6121;SDS011;3091;51.506;7.672;2023-08-07T00:33:33;28.07;;;26.27;;
6121;SDS011;3091;51.506;7.672;2023-08-07T00:35:59;28.20;;;26.40;;
6121;SDS011;3091;51.506;7.672;2023-08-07T00:38:25;27.50;;;25.70;;
6121;SDS011;3091;51.506;7.672;2023-08-07T00:40:51;28.37;;;26.57;;
6121;SDS011;3091;51.506;7.672;2023-08-07T00:43:17;28.40;;;26.60;;
6121;SDS011;3091;51.506;7.672;2023-08-07T00:45:43;28.63;;;26.80;;
6121;SDS011;3091;51.506;7.672;2023-08-07T00:48:11;28.03;;;26.23;;
6121;SDS011;3091;51.506;7.672;2023-08-07T00:50:38;26.40;;;24.60;;
6121;SDS011;3091;51.506;7.672;2023-08-07T00:53:04;25.13;;;23.50;;
6121;SDS011;3091;51.506;7.672;2023-08-07T00:55:30;24.37;;;22.77;;
6121;SDS011;3091;51.506;7.672;2023-08-07T00:57:59;24.10;;;22.50;;
6121;SDS011;3091;51.506;7.672;2023-08-07T01:00:25;24.50;;;22.90;;
6121;SDS011;3091;51.506;7.672;2023-08-07T01:02:52;24.83;;;23.23;;
6121;SDS011;3091;51.506;7.672;2023-08-07T01:05:19;23.70;;;22.20;;
6121;SDS011;3091;51.506;7.672;2023-08-07T01:07:48;22.90;;;21.40;;
6121;SDS011;3091;51.506;7.672;2023-08-07T01:10:16;23.13;;;21.63;;
6121;SDS011;3091;51.506;7.672;2023-08-07T01:12:45;23.10;;;21.60;;
6121;SDS011;3091;51.506;7.672;2023-08-07T01:15:19;23.20;;;21.70;;
6121;SDS011;3091;51.506;7.672;2023-08-07T01:17:46;22.60;;;21.20;;
6121;SDS011;3091;51.506;7.672;2023-08-07T01:20:12;24.30;;;22.80;;
6121;SDS011;3091;51.506;7.672;2023-08-07T01:22:39;23.70;;;22.20;;
6121;SDS011;3091;51.506;7.672;2023-08-07T01:25:05;24.10;;;22.60;;
6121;SDS011;3091;51.506;7.672;2023-08-07T01:27:33;24.20;;;22.70;;
6121;SDS011;3091;51.506;7.672;2023-08-07T01:32:34;24.30;;;22.80;;
6121;SDS011;3091;51.506;7.672;2023-08-07T01:35:02;25.43;;;23.73;;
6121;SDS011;3091;51.506;7.672;2023-08-07T01:37:29;24.67;;;23.10;;
6121;SDS011;3091;51.506;7.672;2023-08-07T01:39:57;24.80;;;23.20;;
6121;SDS011;3091;51.506;7.672;2023-08-07T01:42:26;24.80;;;23.20;;
6121;SDS011;3091;51.506;7.672;2023-08-07T01:44:52;25.30;;;23.70;;
6121;SDS011;3091;51.506;7.672;2023-08-07T01:47:18;24.40;;;22.80;;
6121;SDS011;3091;51.506;7.672;2023-08-07T01:49:44;24.93;;;23.23;;
6121;SDS011;3091;51.506;7.672;2023-08-07T01:52:10;23.60;;;22.10;;
6121;SDS011;3091;51.506;7.672;2023-08-07T01:54:37;23.97;;;22.47;;
6121;SDS011;3091;51.506;7.672;2023-08-07T01:57:03;24.10;;;22.60;;
6121;SDS011;3091;51.506;7.672;2023-08-07T01:59:29;23.97;;;22.47;;
6121;SDS011;3091;51.506;7.672;2023-08-07T02:01:55;24.83;;;23.23;;
6121;SDS011;3091;51.506;7.672;2023-08-07T02:04:21;24.40;;;22.80;;
6121;SDS011;3091;51.506;7.672;2023-08-07T02:06:47;24.10;;;22.60;;
6121;SDS011;3091;51.506;7.672;2023-08-07T02:09:13;24.20;;;22.70;;
6121;SDS011;3091;51.506;7.672;2023-08-07T02:11:42;24.93;;;23.33;;
6121;SDS011;3091;51.506;7.672;2023-08-07T02:14:09;26.47;;;23.93;;
6121;SDS011;3091;51.506;7.672;2023-08-07T02:16:35;24.10;;;22.50;;
6121;SDS011;3091;51.506;7.672;2023-08-07T02:19:01;24.00;;;22.50;;
6121;SDS011;3091;51.506;7.672;2023-08-07T02:21:27;23.60;;;22.07;;
6121;SDS011;3091;51.506;7.672;2023-08-07T02:23:53;23.17;;;21.77;;
6121;SDS011;3091;51.506;7.672;2023-08-07T02:26:19;24.13;;;22.40;;
6121;SDS011;3091;51.506;7.672;2023-08-07T02:28:45;25.07;;;23.37;;
6121;SDS011;3091;51.506;7.672;2023-08-07T02:31:11;24.03;;;22.43;;
6121;SDS011;3091;51.506;7.672;2023-08-07T02:33:37;23.97;;;22.37;;
6121;SDS011;3091;51.506;7.672;2023-08-07T02:36:03;24.30;;;22.60;;
6121;SDS011;3091;51.506;7.672;2023-08-07T02:38:29;22.80;;;21.40;;
6121;SDS011;3091;51.506;7.672;2023-08-07T02:40:55;23.00;;;21.60;;
6121;SDS011;3091;51.506;7.672;2023-08-07T02:43:21;23.60;;;22.10;;
6121;SDS011;3091;51.506;7.672;2023-08-07T02:45:47;23.13;;;21.53;;
6121;SDS011;3091;51.506;7.672;2023-08-07T02:48:13;23.30;;;21.90;;
6121;SDS011;3091;51.506;7.672;2023-08-07T02:50:39;24.27;;;22.77;;
6121;SDS011;3091;51.506;7.672;2023-08-07T02:53:05;24.57;;;22.87;;
6121;SDS011;3091;51.506;7.672;2023-08-07T02:55:32;25.77;;;24.13;;
6121;SDS011;3091;51.506;7.672;2023-08-07T02:57:58;22.90;;;21.43;;
6121;SDS011;3091;51.506;7.672;2023-08-07T03:00:24;24.43;;;22.83;;
6121;SDS011;3091;51.506;7.672;2023-08-07T03:02:50;26.03;;;24.33;;
6121;SDS011;3091;51.506;7.672;2023-08-07T03:05:16;24.30;;;22.80;;
6121;SDS011;3091;51.506;7.672;2023-08-07T03:07:42;23.93;;;22.43;;
6121;SDS011;3091;51.506;7.672;2023-08-07T03:10:08;23.10;;;21.60;;
6121;SDS011;3091;51.506;7.672;2023-08-07T03:12:34;22.53;;;21.13;;
6121;SDS011;3091;51.506;7.672;2023-08-07T03:15:02;22.10;;;20.70;;
6121;SDS011;3091;51.506;7.672;2023-08-07T03:17:30;22.90;;;21.50;;
6121;SDS011;3091;51.506;7.672;2023-08-07T03:19:56;22.07;;;20.67;;
6121;SDS011;3091;51.506;7.672;2023-08-07T03:22:22;22.40;;;21.00;;
6121;SDS011;3091;51.506;7.672;2023-08-07T03:24:49;22.77;;;21.20;;
6121;SDS011;3091;51.506;7.672;2023-08-07T03:27:15;21.80;;;20.50;;
6121;SDS011;3091;51.506;7.672;2023-08-07T03:29:41;22.20;;;20.90;;
6121;SDS011;3091;51.506;7.672;2023-08-07T03:32:08;22.50;;;21.13;;
6121;SDS011;3091;51.506;7.672;2023-08-07T03:34:34;21.87;;;20.57;;
6121;SDS011;3091;51.506;7.672;2023-08-07T03:37:00;22.83;;;21.43;;
6121;SDS011;3091;51.506;7.672;2023-08-07T03:39:26;22.03;;;20.63;;
6121;SDS011;3091;51.506;7.672;2023-08-07T03:41:52;22.40;;;21.03;;
6121;SDS011;3091;51.506;7.672;2023-08-07T03:44:18;22.43;;;21.03;;
6121;SDS011;3091;51.506;7.672;2023-08-07T03:46:44;23.37;;;21.87;;
6121;SDS011;3091;51.506;7.672;2023-08-07T03:49:10;21.83;;;20.43;;
6121;SDS011;3091;51.506;7.672;2023-08-07T03:51:36;22.10;;;20.70;;
6121;SDS011;3091;51.506;7.672;2023-08-07T03:54:02;21.60;;;20.23;;
6121;SDS011;3091;51.506;7.672;2023-08-07T03:56:28;22.27;;;20.87;;
6121;SDS011;3091;51.506;7.672;2023-08-07T03:59:01;20.90;;;19.60;;
6121;SDS011;3091;51.506;7.672;2023-08-07T04:01:27;22.53;;;21.13;;
6121;SDS011;3091;51.506;7.672;2023-08-07T04:03:53;21.30;;;20.00;;
6121;SDS011;3091;51.506;7.672;2023-08-07T04:06:19;22.40;;;20.90;;
6121;SDS011;3091;51.506;7.672;2023-08-07T04:08:48;22.67;;;21.27;;
6121;SDS011;3091;51.506;7.672;2023-08-07T04:11:14;22.60;;;21.20;;
6121;SDS011;3091;51.506;7.672;2023-08-07T04:13:40;23.30;;;21.77;;
6121;SDS011;3091;51.506;7.672;2023-08-07T04:16:06;22.70;;;21.30;;
6121;SDS011;3091;51.506;7.672;2023-08-07T04:18:34;24.10;;;22.70;;
6121;SDS011;3091;51.506;7.672;2023-08-07T04:21:01;22.50;;;21.10;;
6121;SDS011;3091;51.506;7.672;2023-08-07T04:23:29;22.23;;;20.83;;
6121;SDS011;3091;51.506;7.672;2023-08-07T04:25:59;23.03;;;21.53;;
6121;SDS011;3091;51.506;7.672;2023-08-07T04:28:27;22.40;;;21.00;;
6121;SDS011;3091;51.506;7.672;2023-08-07T04:30:53;23.30;;;21.87;;
6121;SDS011;3091;51.506;7.672;2023-08-07T04:33:19;22.97;;;21.47;;
6121;SDS011;3091;51.506;7.672;2023-08-07T04:35:46;23.00;;;21.37;;
6121;SDS011;3091;51.506;7.672;2023-08-07T04:38:12;31.93;;;30.03;;
6121;SDS011;3091;51.506;7.672;2023-08-07T04:40:43;42.93;;;40.90;;
6121;SDS011;3091;51.506;7.672;2023-08-07T04:43:09;44.00;;;40.77;;
6121;SDS011;3091;51.506;7.672;2023-08-07T04:45:35;41.03;;;39.03;;
6121;SDS011;3091;51.506;7.672;2023-08-07T04:48:03;40.00;;;38.10;;
6121;SDS011;3091;51.506;7.672;2023-08-07T04:50:29;41.30;;;39.27;;
6121;SDS011;3091;51.506;7.672;2023-08-07T04:52:55;42.37;;;40.37;;
6121;SDS011;3091;51.506;7.672;2023-08-07T04:55:21;46.23;;;43.80;;
6121;SDS011;3091;51.506;7.672;2023-08-07T04:57:47;46.33;;;43.77;;
6121;SDS011;3091;51.506;7.672;2023-08-07T05:00:15;44.60;;;42.30;;
6121;SDS011;3091;51.506;7.672;2023-08-07T05:02:42;44.50;;;42.20;;
6121;SDS011;3091;51.506;7.672;2023-08-07T05:05:08;45.27;;;42.97;;
6121;SDS011;3091;51.506;7.672;2023-08-07T05:07:34;47.20;;;44.90;;
6121;SDS011;3091;51.506;7.672;2023-08-07T05:10:03;48.60;;;46.10;;
6121;SDS011;3091;51.506;7.672;2023-08-07T05:12:32;47.80;;;45.50;;
6121;SDS011;3091;51.506;7.672;2023-08-07T05:14:58;47.60;;;45.20;;
6121;SDS011;3091;51.506;7.672;2023-08-07T05:17:24;48.67;;;45.80;;
6121;SDS011;3091;51.506;7.672;2023-08-07T05:19:50;47.40;;;45.00;;
6121;SDS011;3091;51.506;7.672;2023-08-07T05:22:16;47.03;;;44.63;;
6121;SDS011;3091;51.506;7.672;2023-08-07T05:24:42;45.67;;;43.20;;
6121;SDS011;3091;51.506;7.672;2023-08-07T05:27:09;46.37;;;43.83;;
6121;SDS011;3091;51.506;7.672;2023-08-07T05:29:36;44.50;;;42.10;;
6121;SDS011;3091;51.506;7.672;2023-08-07T05:32:08;46.97;;;44.37;;
6121;SDS011;3091;51.506;7.672;2023-08-07T05:34:35;47.17;;;44.30;;
6121;SDS011;3091;51.506;7.672;2023-08-07T05:37:01;49.50;;;46.63;;
6121;SDS011;3091;51.506;7.672;2023-08-07T05:39:27;47.30;;;44.90;;
6121;SDS011;3091;51.506;7.672;2023-08-07T05:41:53;50.30;;;47.70;;
6121;SDS011;3091;51.506;7.672;2023-08-07T05:44:22;50.50;;;48.00;;
6121;SDS011;3091;51.506;7.672;2023-08-07T05:46:48;51.50;;;48.70;;
6121;SDS011;3091;51.506;7.672;2023-08-07T05:49:14;48.80;;;46.30;;
6121;SDS011;3091;51.506;7.672;2023-08-07T05:51:40;48.07;;;45.47;;
6121;SDS011;3091;51.506;7.672;2023-08-07T05:54:06;49.67;;;46.97;;
6121;SDS011;3091;51.506;7.672;2023-08-07T05:56:32;54.77;;;51.47;;
6121;SDS011;3091;51.506;7.672;2023-08-07T05:58:58;51.80;;;48.90;;
6121;SDS011;3091;51.506;7.672;2023-08-07T06:01:32;47.63;;;44.97;;
6121;SDS011;3091;51.506;7.672;2023-08-07T06:03:58;48.13;;;45.47;;
6121;SDS011;3091;51.506;7.672;2023-08-07T06:06:24;50.63;;;47.80;;
6121;SDS011;3091;51.506;7.672;2023-08-07T06:08:52;49.10;;;46.30;;
6121;SDS011;3091;51.506;7.672;2023-08-07T06:11:18;49.67;;;46.97;;
6121;SDS011;3091;51.506;7.672;2023-08-07T06:13:44;47.17;;;44.57;;
6121;SDS011;3091;51.506;7.672;2023-08-07T06:16:10;47.10;;;44.60;;
6121;SDS011;3091;51.506;7.672;2023-08-07T06:18:37;47.07;;;44.63;;
6121;SDS011;3091;51.506;7.672;2023-08-07T06:21:03;47.20;;;44.60;;
6121;SDS011;3091;51.506;7.672;2023-08-07T06:23:35;44.70;;;42.40;;
6121;SDS011;3091;51.506;7.672;2023-08-07T06:26:01;47.03;;;44.50;;
6121;SDS011;3091;51.506;7.672;2023-08-07T06:28:31;46.10;;;43.40;;
6121;SDS011;3091;51.506;7.672;2023-08-07T06:31:02;47.40;;;44.80;;
6121;SDS011;3091;51.506;7.672;2023-08-07T06:33:28;45.80;;;43.40;;
6121;SDS011;3091;51.506;7.672;2023-08-07T06:35:54;46.87;;;44.37;;
6121;SDS011;3091;51.506;7.672;2023-08-07T06:38:20;47.30;;;44.80;;
6121;SDS011;3091;51.506;7.672;2023-08-07T06:40:46;50.90;;;48.30;;
6121;SDS011;3091;51.506;7.672;2023-08-07T06:43:12;49.70;;;47.20;;
6121;SDS011;3091;51.506;7.672;2023-08-07T06:45:38;50.93;;;48.33;;
6121;SDS011;3091;51.506;7.672;2023-08-07T06:48:11;53.30;;;50.70;;
6121;SDS011;3091;51.506;7.672;2023-08-07T06:50:38;51.37;;;48.80;;
6121;SDS011;3091;51.506;7.672;2023-08-07T06:53:03;52.00;;;49.30;;
6121;SDS011;3091;51.506;7.672;2023-08-07T06:55:30;52.63;;;49.93;;
6121;SDS011;3091;51.506;7.672;2023-08-07T06:57:56;51.97;;;48.90;;
6121;SDS011;3091;51.506;7.672;2023-08-07T07:00:22;51.00;;;48.30;;
6121;SDS011;3091;51.506;7.672;2023-08-07T07:02:48;50.77;;;48.07;;
6121;SDS011;3091;51.506;7.672;2023-08-07T07:05:14;48.77;;;46.17;;
6121;SDS011;3091;51.506;7.672;2023-08-07T07:07:40;50.30;;;47.50;;
6121;SDS011;3091;51.506;7.672;2023-08-07T07:10:06;49.17;;;46.50;;
6121;SDS011;3091;51.506;7.672;2023-08-07T07:12:32;48.00;;;45.37;;
6121;SDS011;3091;51.506;7.672;2023-08-07T07:14:58;48.37;;;45.90;;
6121;SDS011;3091;51.506;7.672;2023-08-07T07:17:24;47.13;;;44.63;;
6121;SDS011;3091;51.506;7.672;2023-08-07T07:19:50;47.77;;;45.37;;
6121;SDS011;3091;51.506;7.672;2023-08-07T07:22:16;49.00;;;46.30;;
6121;SDS011;3091;51.506;7.672;2023-08-07T07:24:42;45.50;;;43.20;;
6121;SDS011;3091;51.506;7.672;2023-08-07T07:27:08;47.47;;;44.77;;
6121;SDS011;3091;51.506;7.672;2023-08-07T07:29:34;46.03;;;43.63;;
6121;SDS011;3091;51.506;7.672;2023-08-07T07:32:00;48.00;;;45.40;;
6121;SDS011;3091;51.506;7.672;2023-08-07T07:34:26;49.00;;;46.47;;
6121;SDS011;3091;51.506;7.672;2023-08-07T07:36:52;51.20;;;48.60;;
6121;SDS011;3091;51.506;7.672;2023-08-07T07:39:19;49.00;;;46.50;;
6121;SDS011;3091;51.506;7.672;2023-08-07T07:41:46;48.93;;;46.43;;
6121;SDS011;3091;51.506;7.672;2023-08-07T07:44:12;49.63;;;46.93;;
6121;SDS011;3091;51.506;7.672;2023-08-07T07:46:38;46.70;;;43.93;;
6121;SDS011;3091;51.506;7.672;2023-08-07T07:49:04;46.07;;;43.53;;
6121;SDS011;3091;51.506;7.672;2023-08-07T07:51:31;46.40;;;43.80;;
6121;SDS011;3091;51.506;7.672;2023-08-07T07:53:58;46.43;;;43.83;;
6121;SDS011;3091;51.506;7.672;2023-08-07T07:56:24;48.60;;;45.60;;
6121;SDS011;3091;51.506;7.672;2023-08-07T07:58:50;55.37;;;52.37;;
6121;SDS011;3091;51.506;7.672;2023-08-07T08:01:16;57.80;;;54.63;;
6121;SDS011;3091;51.506;7.672;2023-08-07T08:03:45;55.83;;;52.83;;
6121;SDS011;3091;51.506;7.672;2023-08-07T08:06:11;52.70;;;49.90;;
6121;SDS011;3091;51.506;7.672;2023-08-07T08:08:38;50.17;;;47.10;;
6121;SDS011;3091;51.506;7.672;2023-08-07T08:11:04;46.03;;;43.53;;
6121;SDS011;3091;51.506;7.672;2023-08-07T08:13:30;47.43;;;44.83;;
6121;SDS011;3091;51.506;7.672;2023-08-07T08:15:57;47.73;;;45.10;;
6121;SDS011;3091;51.506;7.672;2023-08-07T08:18:23;46.90;;;44.40;;
6121;SDS011;3091;51.506;7.672;2023-08-07T08:20:53;47.70;;;45.10;;
6121;SDS011;3091;51.506;7.672;2023-08-07T08:23:19;48.00;;;45.40;;
6121;SDS011;3091;51.506;7.672;2023-08-07T08:25:46;50.83;;;47.93;;
6121;SDS011;3091;51.506;7.672;2023-08-07T08:28:11;49.93;;;47.13;;
6121;SDS011;3091;51.506;7.672;2023-08-07T08:30:38;49.93;;;47.03;;
6121;SDS011;3091;51.506;7.672;2023-08-07T08:33:03;51.03;;;48.13;;
6121;SDS011;3091;51.506;7.672;2023-08-07T08:35:33;50.00;;;47.20;;
6121;SDS011;3091;51.506;7.672;2023-08-07T08:37:59;46.67;;;44.07;;
6121;SDS011;3091;51.506;7.672;2023-08-07T08:40:26;48.10;;;45.40;;
6121;SDS011;3091;51.506;7.672;2023-08-07T08:42:52;50.60;;;47.80;;
6121;SDS011;3091;51.506;7.672;2023-08-07T08:45:22;52.80;;;49.90;;
6121;SDS011;3091;51.506;7.672;2023-08-07T08:47:49;53.90;;;51.00;;
6121;SDS011;3091;51.506;7.672;2023-08-07T08:50:17;53.20;;;50.40;;
6121;SDS011;3091;51.506;7.672;2023-08-07T08:52:43;57.90;;;54.70;;
6121;SDS011;3091;51.506;7.672;2023-08-07T08:55:12;55.17;;;52.27;;
6121;SDS011;3091;51.506;7.672;2023-08-07T08:57:39;55.37;;;52.37;;
6121;SDS011;3091;51.506;7.672;2023-08-07T09:00:06;57.87;;;54.77;;
6121;SDS011;3091;51.506;7.672;2023-08-07T09:02:49;55.23;;;52.03;;
6121;SDS011;3091;51.506;7.672;2023-08-07T09:05:15;57.47;;;54.27;;
6121;SDS011;3091;51.506;7.672;2023-08-07T09:07:42;65.57;;;62.07;;
6121;SDS011;3091;51.506;7.672;2023-08-07T09:10:09;69.20;;;65.50;;
6121;SDS011;3091;51.506;7.672;2023-08-07T09:13:13;73.73;;;69.93;;
6121;SDS011;3091;51.506;7.672;2023-08-07T09:15:31;70.60;;;67.10;;
6121;SDS011;3091;51.506;7.672;2023-08-07T09:17:58;65.07;;;61.77;;
6121;SDS011;3091;51.506;7.672;2023-08-07T09:20:24;59.03;;;56.13;;
6121;SDS011;3091;51.506;7.672;2023-08-07T09:22:51;51.53;;;48.57;;
6121;SDS011;3091;51.506;7.672;2023-08-07T09:25:29;82.33;;;78.60;;
6121;SDS011;3091;51.506;7.672;2023-08-07T09:27:56;110.80;;;105.97;;
6121;SDS011;3091;51.506;7.672;2023-08-07T09:30:25;106.20;;;101.20;;
6121;SDS011;3091;51.506;7.672;2023-08-07T09:32:51;85.37;;;81.07;;
6121;SDS011;3091;51.506;7.672;2023-08-07T09:35:20;76.80;;;72.70;;
6121;SDS011;3091;51.506;7.672;2023-08-07T09:37:49;78.87;;;74.87;;
6121;SDS011;3091;51.506;7.672;2023-08-07T09:40:15;71.80;;;68.10;;
6121;SDS011;3091;51.506;7.672;2023-08-07T09:42:41;72.30;;;68.60;;
6121;SDS011;3091;51.506;7.672;2023-08-07T09:45:41;78.00;;;74.13;;
6121;SDS011;3091;51.506;7.672;2023-08-07T09:48:04;68.20;;;64.80;;
6121;SDS011;3091;51.506;7.672;2023-08-07T09:50:31;62.80;;;59.70;;
6121;SDS011;3091;51.506;7.672;2023-08-07T09:52:57;66.07;;;62.77;;
6121;SDS011;3091;51.506;7.672;2023-08-07T09:55:24;54.40;;;51.90;;
6121;SDS011;3091;51.506;7.672;2023-08-07T09:57:50;44.30;;;42.00;;
6121;SDS011;3091;51.506;7.672;2023-08-07T10:00:16;35.47;;;33.97;;
6121;SDS011;3091;51.506;7.672;2023-08-07T10:02:45;34.10;;;32.53;;
6121;SDS011;3091;51.506;7.672;2023-08-07T10:05:12;35.70;;;34.10;;
6121;SDS011;3091;51.506;7.672;2023-08-07T10:07:38;34.17;;;32.00;;
6121;SDS011;3091;51.506;7.672;2023-08-07T10:10:05;30.27;;;28.97;;
6121;SDS011;3091;51.506;7.672;2023-08-07T10:12:31;32.47;;;30.90;;
6121;SDS011;3091;51.506;7.672;2023-08-07T10:15:01;28.00;;;26.80;;
6121;SDS011;3091;51.506;7.672;2023-08-07T10:17:29;26.17;;;25.17;;
6121;SDS011;3091;51.506;7.672;2023-08-07T10:19:56;32.30;;;31.07;;
6121;SDS011;3091;51.506;7.672;2023-08-07T10:22:23;26.77;;;25.77;;
6121;SDS011;3091;51.506;7.672;2023-08-07T10:24:51;27.87;;;26.73;;
6121;SDS011;3091;51.506;7.672;2023-08-07T10:27:18;20.33;;;19.73;;
6121;SDS011;3091;51.506;7.672;2023-08-07T10:29:46;19.80;;;19.20;;
6121;SDS011;3091;51.506;7.672;2023-08-07T10:32:13;18.57;;;17.97;;
6121;SDS011;3091;51.506;7.672;2023-08-07T10:34:40;19.73;;;18.70;;
6121;SDS011;3091;51.506;7.672;2023-08-07T10:37:08;20.60;;;19.80;;
6121;SDS011;3091;51.506;7.672;2023-08-07T10:39:34;19.60;;;18.90;;
6121;SDS011;3091;51.506;7.672;2023-08-07T10:42:00;18.33;;;17.63;;
6121;SDS011;3091;51.506;7.672;2023-08-07T10:44:30;19.73;;;19.03;;
6121;SDS011;3091;51.506;7.672;2023-08-07T10:46:57;18.90;;;18.30;;
6121;SDS011;3091;51.506;7.672;2023-08-07T10:49:36;18.30;;;17.60;;
6121;SDS011;3091;51.506;7.672;2023-08-07T10:52:03;24.70;;;23.90;;
6121;SDS011;3091;51.506;7.672;2023-08-07T10:54:29;19.03;;;18.43;;
6121;SDS011;3091;51.506;7.672;2023-08-07T10:56:55;18.07;;;17.23;;
6121;SDS011;3091;51.506;7.672;2023-08-07T10:59:21;20.97;;;20.27;;
6121;SDS011;3091;51.506;7.672;2023-08-07T11:01:51;21.40;;;20.70;;
6121;SDS011;3091;51.506;7.672;2023-08-07T11:04:17;26.07;;;25.20;;
6121;SDS011;3091;51.506;7.672;2023-08-07T11:06:47;26.23;;;25.33;;
6121;SDS011;3091;51.506;7.672;2023-08-07T11:09:13;24.80;;;23.90;;
6121;SDS011;3091;51.506;7.672;2023-08-07T11:11:42;26.23;;;25.33;;
6121;SDS011;3091;51.506;7.672;2023-08-07T11:14:09;20.33;;;19.10;;
6121;SDS011;3091;51.506;7.672;2023-08-07T11:16:35;18.70;;;18.10;;
6121;SDS011;3091;51.506;7.672;2023-08-07T11:19:02;19.00;;;18.40;;
6121;SDS011;3091;51.506;7.672;2023-08-07T11:21:28;17.97;;;17.37;;
6121;SDS011;3091;51.506;7.672;2023-08-07T11:23:54;18.57;;;17.87;;
6121;SDS011;3091;51.506;7.672;2023-08-07T11:26:20;17.70;;;17.10;;
6121;SDS011;3091;51.506;7.672;2023-08-07T11:28:47;16.97;;;16.47;;
6121;SDS011;3091;51.506;7.672;2023-08-07T11:31:13;21.20;;;20.50;;
6121;SDS011;3091;51.506;7.672;2023-08-07T11:33:40;18.30;;;17.70;;
6121;SDS011;3091;51.506;7.672;2023-08-07T11:36:14;26.17;;;25.30;;
6121;SDS011;3091;51.506;7.672;2023-08-07T11:38:41;27.77;;;26.77;;
6121;SDS011;3091;51.506;7.672;2023-08-07T11:41:08;29.17;;;27.97;;
6121;SDS011;3091;51.506;7.672;2023-08-07T11:43:35;26.83;;;25.93;;
6121;SDS011;3091;51.506;7.672;2023-08-07T11:46:02;26.40;;;25.50;;
6121;SDS011;3091;51.506;7.672;2023-08-07T11:48:28;19.17;;;18.47;;
6121;SDS011;3091;51.506;7.672;2023-08-07T11:50:56;28.23;;;27.33;;
6121;SDS011;3091;51.506;7.672;2023-08-07T11:53:23;26.30;;;25.40;;
6121;SDS011;3091;51.506;7.672;2023-08-07T11:58:20;20.80;;;20.10;;
6121;SDS011;3091;51.506;7.672;2023-08-07T12:00:48;29.30;;;28.30;;
6121;SDS011;3091;51.506;7.672;2023-08-07T12:03:24;28.17;;;27.17;;
6121;SDS011;3091;51.506;7.672;2023-08-07T12:05:51;29.53;;;28.53;;
6121;SDS011;3091;51.506;7.672;2023-08-07T12:08:18;25.60;;;24.80;;
6121;SDS011;3091;51.506;7.672;2023-08-07T12:10:44;20.90;;;20.10;;
6121;SDS011;3091;51.506;7.672;2023-08-07T12:13:14;27.77;;;26.80;;
6121;SDS011;3091;51.506;7.672;2023-08-07T12:15:41;20.33;;;19.63;;
6121;SDS011;3091;51.506;7.672;2023-08-07T12:18:07;21.73;;;20.83;;
6121;SDS011;3091;51.506;7.672;2023-08-07T12:20:33;28.90;;;27.90;;
6121;SDS011;3091;51.506;7.672;2023-08-07T12:22:59;21.57;;;20.57;;
6121;SDS011;3091;51.506;7.672;2023-08-07T12:25:25;22.50;;;21.60;;
6121;SDS011;3091;51.506;7.672;2023-08-07T12:27:51;21.33;;;20.13;;
6121;SDS011;3091;51.506;7.672;2023-08-07T12:30:17;26.97;;;26.07;;
6121;SDS011;3091;51.506;7.672;2023-08-07T12:32:44;25.07;;;23.80;;
6121;SDS011;3091;51.506;7.672;2023-08-07T12:35:09;28.70;;;27.60;;
6121;SDS011;3091;51.506;7.672;2023-08-07T12:37:36;19.40;;;18.70;;
6121;SDS011;3091;51.506;7.672;2023-08-07T12:40:02;19.43;;;18.73;;
6121;SDS011;3091;51.506;7.672;2023-08-07T12:42:31;26.00;;;25.00;;
6121;SDS011;3091;51.506;7.672;2023-08-07T12:44:57;26.60;;;25.70;;
6121;SDS011;3091;51.506;7.672;2023-08-07T12:47:23;28.10;;;27.10;;
6121;SDS011;3091;51.506;7.672;2023-08-07T12:49:49;29.30;;;28.23;;
6121;SDS011;3091;51.506;7.672;2023-08-07T12:52:15;20.30;;;19.60;;
6121;SDS011;3091;51.506;7.672;2023-08-07T12:54:41;20.27;;;19.57;;
6121;SDS011;3091;51.506;7.672;2023-08-07T12:57:07;29.10;;;28.10;;
6121;SDS011;3091;51.506;7.672;2023-08-07T12:59:33;21.43;;;20.53;;
6121;SDS011;3091;51.506;7.672;2023-08-07T13:01:59;29.97;;;28.97;;
6121;SDS011;3091;51.506;7.672;2023-08-07T13:04:25;29.50;;;28.50;;
6121;SDS011;3091;51.506;7.672;2023-08-07T13:06:51;20.30;;;19.60;;
6121;SDS011;3091;51.506;7.672;2023-08-07T13:09:17;21.17;;;20.20;;
6121;SDS011;3091;51.506;7.672;2023-08-07T13:11:43;19.37;;;18.77;;
6121;SDS011;3091;51.506;7.672;2023-08-07T13:14:09;20.80;;;20.10;;
6121;SDS011;3091;51.506;7.672;2023-08-07T13:16:35;21.90;;;20.90;;
6121;SDS011;3091;51.506;7.672;2023-08-07T13:19:01;20.23;;;19.43;;
6121;SDS011;3091;51.506;7.672;2023-08-07T13:21:27;20.37;;;19.67;;
6121;SDS011;3091;51.506;7.672;2023-08-07T13:23:53;29.70;;;28.70;;
6121;SDS011;3091;51.506;7.672;2023-08-07T13:26:20;19.73;;;19.13;;
6121;SDS011;3091;51.506;7.672;2023-08-07T13:28:46;18.90;;;18.20;;
6121;SDS011;3091;51.506;7.672;2023-08-07T13:31:12;20.30;;;19.53;;
6121;SDS011;3091;51.506;7.672;2023-08-07T13:33:38;19.20;;;18.60;;
6121;SDS011;3091;51.506;7.672;2023-08-07T13:36:04;18.73;;;18.13;;
6121;SDS011;3091;51.506;7.672;2023-08-07T13:38:30;20.00;;;19.30;;
6121;SDS011;3091;51.506;7.672;2023-08-07T13:40:56;18.37;;;17.77;;
6121;SDS011;3091;51.506;7.672;2023-08-07T13:43:22;19.13;;;18.53;;
6121;SDS011;3091;51.506;7.672;2023-08-07T13:45:48;18.47;;;17.80;;
6121;SDS011;3091;51.506;7.672;2023-08-07T13:48:16;19.40;;;18.70;;
6121;SDS011;3091;51.506;7.672;2023-08-07T13:50:42;19.43;;;18.73;;
6121;SDS011;3091;51.506;7.672;2023-08-07T13:53:08;18.23;;;17.63;;
6121;SDS011;3091;51.506;7.672;2023-08-07T13:55:34;19.73;;;19.13;;
6121;SDS011;3091;51.506;7.672;2023-08-07T13:58:00;20.40;;;19.70;;
6121;SDS011;3091;51.506;7.672;2023-08-07T14:00:29;18.50;;;17.90;;
6121;SDS011;3091;51.506;7.672;2023-08-07T14:02:55;19.83;;;19.03;;
6121;SDS011;3091;51.506;7.672;2023-08-07T14:05:21;19.10;;;18.50;;
6121;SDS011;3091;51.506;7.672;2023-08-07T14:07:47;19.50;;;18.80;;
6121;SDS011;3091;51.506;7.672;2023-08-07T14:10:13;26.20;;;25.20;;
6121;SDS011;3091;51.506;7.672;2023-08-07T14:12:39;19.63;;;18.87;;
6121;SDS011;3091;51.506;7.672;2023-08-07T14:15:05;19.37;;;18.73;;
6121;SDS011;3091;51.506;7.672;2023-08-07T14:17:31;19.57;;;18.67;;
6121;SDS011;3091;51.506;7.672;2023-08-07T14:19:57;18.57;;;17.97;;
6121;SDS011;3091;51.506;7.672;2023-08-07T14:22:23;23.83;;;22.97;;
6121;SDS011;3091;51.506;7.672;2023-08-07T14:24:49;56.23;;;53.43;;
6121;SDS011;3091;51.506;7.672;2023-08-07T14:27:15;96.20;;;91.97;;
6121;SDS011;3091;51.506;7.672;2023-08-07T14:29:43;128.17;;;122.77;;
6121;SDS011;3091;51.506;7.672;2023-08-07T14:32:09;156.53;;;150.53;;
6121;SDS011;3091;51.506;7.672;2023-08-07T14:34:35;159.00;;;152.87;;
6121;SDS011;3091;51.506;7.672;2023-08-07T14:37:04;164.70;;;158.40;;
6121;SDS011;3091;51.506;7.672;2023-08-07T14:39:32;170.83;;;164.23;;
6121;SDS011;3091;51.506;7.672;2023-08-07T14:41:58;184.27;;;177.47;;
6121;SDS011;3091;51.506;7.672;2023-08-07T14:44:24;136.47;;;131.17;;
6121;SDS011;3091;51.506;7.672;2023-08-07T14:46:50;134.73;;;129.53;;
6121;SDS011;3091;51.506;7.672;2023-08-07T14:49:16;82.27;;;78.87;;
6121;SDS011;3091;51.506;7.672;2023-08-07T14:51:42;77.97;;;74.77;;